Impacts TAF Board
For situational awareness. Not to be used for flight planning purposes.
IDs:

KSAN - San Diego Intl Arpt, CA, US

Issued at 0251 UTC 22 Oct 2018
Updated at 0517 UTC 22 Oct 2018
Potential Impact None Slight Moderate High
Time<<23/06Z 23/07Z 23/08Z 23/09Z 23/10Z 23/11Z 23/12Z 23/13Z 23/14Z 23/15Z 23/16Z 23/17Z 23/18Z
Type
VIS
CIG
Cover
FltCat
WX
WDir
WSpd
WGst
Raw TAF
KSAN 220251Z 2203/2306 VRB05KT P6SM FEW009 SCT080
  FM220500 VRB03KT 3SM BR OVC007
  FM221500 VRB04KT 6SM BR SCT010
  FM222000 28008KT P6SM SCT010 SCT250
  FM230200 VRB05KT P6SM FEW010 FEW080 SCT250


METAR Board
Radar Display
Forecast Discussion
For situational awareness. Not to be used for flight planning purposes.